createdAt,value
2023-08-04T00:02:20.084Z,91.10
2023-08-04T00:04:47.199Z,91.30
2023-08-04T00:07:13.971Z,90.90
2023-08-04T00:09:40.685Z,91.50
2023-08-04T00:12:07.678Z,91.10
2023-08-04T00:14:34.474Z,90.80
2023-08-04T00:17:01.201Z,91.10
2023-08-04T00:19:27.999Z,91.30
2023-08-04T00:21:54.809Z,91.10
2023-08-04T00:24:21.529Z,91.30
2023-08-04T00:26:48.347Z,90.70
2023-08-04T00:29:15.077Z,90.70
2023-08-04T00:31:41.819Z,90.70
2023-08-04T00:34:08.644Z,90.90
2023-08-04T00:36:35.584Z,90.60
2023-08-04T00:39:02.289Z,90.40
2023-08-04T00:41:29.112Z,90.70
2023-08-04T00:43:55.839Z,90.30
2023-08-04T00:46:22.709Z,90.20
2023-08-04T00:48:49.662Z,90.20
2023-08-04T00:51:16.613Z,90.10
2023-08-04T00:53:43.374Z,90.30
2023-08-04T00:56:10.154Z,90.30
2023-08-04T00:58:36.921Z,90.30
2023-08-04T01:01:03.782Z,90.10
2023-08-04T01:03:30.748Z,89.60
2023-08-04T01:06:06.546Z,90.50
2023-08-04T01:08:35.036Z,89.70
2023-08-04T01:11:07.745Z,89.60
2023-08-04T01:13:35.148Z,90.10
2023-08-04T01:16:05.612Z,90.20
2023-08-04T01:18:32.558Z,90.20
2023-08-04T01:23:46.793Z,90.40
2023-08-04T01:26:13.697Z,90.10
2023-08-04T01:28:41.401Z,90.20
2023-08-04T01:31:09.353Z,90.50
2023-08-04T01:33:36.292Z,90.10
2023-08-04T01:36:03.113Z,90.20
2023-08-04T01:38:29.828Z,90.20
2023-08-04T01:40:56.683Z,90.50
2023-08-04T01:43:23.455Z,90.10
2023-08-04T01:45:50.248Z,90.30
2023-08-04T01:48:18.230Z,90.10
2023-08-04T01:50:45.003Z,90.20
2023-08-04T01:53:11.776Z,90.20
2023-08-04T01:55:38.565Z,90.00
2023-08-04T01:58:05.318Z,90.00
2023-08-04T02:00:32.081Z,90.00
2023-08-04T02:02:59.031Z,89.70
2023-08-04T02:05:25.935Z,89.40
2023-08-04T02:07:52.782Z,90.00
2023-08-04T02:10:19.556Z,89.50
2023-08-04T02:12:46.362Z,89.80
2023-08-04T02:15:13.137Z,89.20
2023-08-04T02:17:39.985Z,89.60
2023-08-04T02:20:07.156Z,89.20
2023-08-04T02:22:33.907Z,89.00
2023-08-04T02:25:00.736Z,89.60
2023-08-04T02:27:28.135Z,89.00
2023-08-04T02:29:54.894Z,88.90
2023-08-04T02:32:21.665Z,87.90
2023-08-04T02:34:50.254Z,88.20
2023-08-04T02:37:17.018Z,88.00
2023-08-04T02:39:43.826Z,88.50
2023-08-04T02:42:10.590Z,88.40
2023-08-04T02:44:37.308Z,87.70
2023-08-04T02:47:04.188Z,87.90
2023-08-04T02:49:31.347Z,88.00
2023-08-04T02:51:58.080Z,87.80
2023-08-04T02:54:25.023Z,87.50
2023-08-04T02:56:51.824Z,87.00
2023-08-04T02:59:18.632Z,87.70
2023-08-04T03:01:45.742Z,87.70
2023-08-04T03:04:14.046Z,86.80
2023-08-04T03:06:40.829Z,87.10
2023-08-04T03:09:07.604Z,87.40
2023-08-04T03:11:34.371Z,87.00
2023-08-04T03:14:01.205Z,87.00
2023-08-04T03:16:28.001Z,86.50
2023-08-04T03:18:54.805Z,86.50
2023-08-04T03:21:21.539Z,86.80
2023-08-04T03:23:48.586Z,86.60
2023-08-04T03:26:15.348Z,87.60
2023-08-04T03:28:42.115Z,86.50
2023-08-04T03:31:09.026Z,86.70
2023-08-04T03:33:36.269Z,86.80
2023-08-04T03:36:03.076Z,87.10
2023-08-04T03:38:29.881Z,86.60
2023-08-04T03:40:56.685Z,86.90
2023-08-04T03:43:23.413Z,87.50
2023-08-04T03:45:50.175Z,87.40
2023-08-04T03:48:16.976Z,87.90
2023-08-04T03:50:44.542Z,87.50
2023-08-04T03:53:11.388Z,87.30
2023-08-04T03:55:38.192Z,88.00
2023-08-04T03:58:04.977Z,88.00
2023-08-04T04:00:32.409Z,88.00
2023-08-04T04:02:59.248Z,88.50
2023-08-04T04:05:26.025Z,88.50
2023-08-04T04:07:52.846Z,88.50
2023-08-04T04:10:19.761Z,88.00
2023-08-04T04:12:46.507Z,88.30
2023-08-04T04:15:13.361Z,88.80
2023-08-04T04:17:40.201Z,88.30
2023-08-04T04:20:07.367Z,88.20
2023-08-04T04:22:35.310Z,88.00
2023-08-04T04:25:03.842Z,87.70
2023-08-04T04:27:30.578Z,88.80
2023-08-04T04:29:57.363Z,88.20
2023-08-04T04:32:24.240Z,89.00
2023-08-04T04:34:51.665Z,88.40
2023-08-04T04:37:18.441Z,88.40
2023-08-04T04:39:45.249Z,88.90
2023-08-04T04:42:12.047Z,90.00
2023-08-04T04:44:38.883Z,89.50
2023-08-04T04:47:06.039Z,89.50
2023-08-04T04:49:33.202Z,89.60
2023-08-04T04:51:59.944Z,89.30
2023-08-04T04:54:28.544Z,89.20
2023-08-04T04:56:55.752Z,89.00
2023-08-04T04:59:22.583Z,89.20
2023-08-04T05:01:49.631Z,90.00
2023-08-04T05:04:16.809Z,89.60
2023-08-04T05:06:43.656Z,89.60
2023-08-04T05:09:10.401Z,90.10
2023-08-04T05:11:37.141Z,89.90
2023-08-04T05:14:05.372Z,90.00
2023-08-04T05:16:32.414Z,89.80
2023-08-04T05:18:59.210Z,89.60
2023-08-04T05:21:26.031Z,89.80
2023-08-04T05:23:52.850Z,90.20
2023-08-04T05:26:19.580Z,90.30
2023-08-04T05:28:46.385Z,90.00
2023-08-04T05:31:13.130Z,90.10
2023-08-04T05:33:39.982Z,90.40
2023-08-04T05:36:06.819Z,90.40
2023-08-04T05:38:33.906Z,90.60
2023-08-04T05:41:03.539Z,90.70
2023-08-04T05:43:30.447Z,90.40
2023-08-04T05:46:00.242Z,90.70
2023-08-04T05:48:27.112Z,90.60
2023-08-04T05:50:57.070Z,90.70
2023-08-04T05:53:23.981Z,90.70
2023-08-04T05:55:50.728Z,90.40
2023-08-04T05:58:17.538Z,90.50
2023-08-04T06:00:44.445Z,90.40
2023-08-04T06:03:11.192Z,90.40
2023-08-04T06:05:38.001Z,90.50
2023-08-04T06:08:05.262Z,90.40
2023-08-04T06:10:32.924Z,90.70
2023-08-04T06:13:00.549Z,90.50
2023-08-04T06:15:27.417Z,90.80
2023-08-04T06:17:54.157Z,90.50
2023-08-04T06:20:21.284Z,90.90
2023-08-04T06:22:49.412Z,90.90
2023-08-04T06:25:16.239Z,90.80
2023-08-04T06:27:43.193Z,91.10
2023-08-04T06:30:10.278Z,91.30
2023-08-04T06:32:37.022Z,91.30
2023-08-04T06:35:03.972Z,91.10
2023-08-04T06:37:30.693Z,91.10
2023-08-04T06:39:57.515Z,91.20
2023-08-04T06:42:24.339Z,91.00
2023-08-04T06:44:51.127Z,91.30
2023-08-04T06:47:17.912Z,91.10
2023-08-04T06:49:44.702Z,91.40
2023-08-04T06:52:11.502Z,91.10
2023-08-04T06:54:38.714Z,91.40
2023-08-04T06:57:06.021Z,91.60
2023-08-04T06:59:32.977Z,91.30
2023-08-04T07:01:59.867Z,91.40
2023-08-04T07:04:26.748Z,91.40
2023-08-04T07:06:54.126Z,91.70
2023-08-04T07:09:20.904Z,91.50
2023-08-04T07:11:47.964Z,91.20
2023-08-04T07:14:14.851Z,91.20
2023-08-04T07:16:41.638Z,91.30
2023-08-04T07:19:08.425Z,91.30
2023-08-04T07:21:37.158Z,91.60
2023-08-04T07:24:04.067Z,91.30
2023-08-04T07:26:31.806Z,91.60
2023-08-04T07:28:58.874Z,91.70
2023-08-04T07:31:25.617Z,91.90
2023-08-04T07:33:52.459Z,91.70
2023-08-04T07:36:19.206Z,91.80
2023-08-04T07:38:46.024Z,91.70
2023-08-04T07:41:18.386Z,91.50
2023-08-04T07:43:45.438Z,91.60
2023-08-04T07:46:21.478Z,91.70
2023-08-04T07:48:49.902Z,91.70
2023-08-04T07:51:16.706Z,91.80
2023-08-04T07:53:43.677Z,91.70
2023-08-04T07:56:10.501Z,91.60
2023-08-04T07:58:39.159Z,91.70
2023-08-04T08:01:07.597Z,91.70
2023-08-04T08:03:35.254Z,92.00
2023-08-04T08:06:02.573Z,91.60
2023-08-04T08:08:29.693Z,91.60
2023-08-04T08:10:56.477Z,91.90
2023-08-04T08:13:23.318Z,91.70
2023-08-04T08:15:50.137Z,91.80
2023-08-04T08:18:16.947Z,91.90
2023-08-04T08:20:44.687Z,91.80
2023-08-04T08:23:11.856Z,91.90
2023-08-04T08:25:38.751Z,92.10
2023-08-04T08:28:05.873Z,91.90
2023-08-04T08:30:32.902Z,91.70
2023-08-04T08:32:59.837Z,92.00
2023-08-04T08:35:26.673Z,91.90
2023-08-04T08:37:53.558Z,92.40
2023-08-04T08:40:21.448Z,91.80
2023-08-04T08:42:48.222Z,92.00
2023-08-04T08:45:15.116Z,91.90
2023-08-04T08:47:45.657Z,92.00
2023-08-04T08:50:13.327Z,92.10
2023-08-04T08:52:40.389Z,92.00
2023-08-04T08:55:07.976Z,91.60
2023-08-04T08:57:35.735Z,91.90
2023-08-04T09:00:04.123Z,92.20
2023-08-04T09:02:38.255Z,92.00
2023-08-04T09:05:05.484Z,91.90
2023-08-04T09:07:32.325Z,92.00
2023-08-04T09:09:59.116Z,92.20
2023-08-04T09:12:28.107Z,92.00
2023-08-04T09:14:56.324Z,92.00
2023-08-04T09:17:28.970Z,92.00
2023-08-04T09:19:55.723Z,91.90
2023-08-04T09:22:22.562Z,91.90
2023-08-04T09:24:57.734Z,91.90
2023-08-04T09:27:28.797Z,92.10
2023-08-04T09:30:02.211Z,92.10
2023-08-04T09:32:29.312Z,91.80
2023-08-04T09:35:00.087Z,92.30
2023-08-04T09:37:27.056Z,92.00
2023-08-04T09:39:53.929Z,92.10
2023-08-04T09:42:22.661Z,92.10
2023-08-04T09:44:53.467Z,92.20
2023-08-04T09:47:27.416Z,92.20
2023-08-04T09:49:55.026Z,92.30
2023-08-04T09:52:23.372Z,92.40
2023-08-04T09:54:51.495Z,92.30
2023-08-04T09:57:18.356Z,92.70
2023-08-04T09:59:45.429Z,92.50
2023-08-04T10:02:14.324Z,92.50
2023-08-04T10:04:42.100Z,92.40
2023-08-04T10:07:09.661Z,92.50
2023-08-04T10:09:36.705Z,92.70
2023-08-04T10:12:03.978Z,92.60
2023-08-04T10:14:30.720Z,92.70
2023-08-04T10:16:58.422Z,92.60
2023-08-04T10:19:25.380Z,92.70
2023-08-04T10:21:55.519Z,92.60
2023-08-04T10:24:22.308Z,92.30
2023-08-04T10:26:50.693Z,92.80
2023-08-04T10:29:17.988Z,92.70
2023-08-04T10:32:00.128Z,92.50
2023-08-04T10:34:29.998Z,92.50
2023-08-04T10:37:00.042Z,92.70
2023-08-04T10:39:31.238Z,92.50
2023-08-04T10:41:59.233Z,93.00
2023-08-04T10:44:30.120Z,92.40
2023-08-04T10:47:05.302Z,92.40
2023-08-04T10:49:32.864Z,92.50
2023-08-04T10:52:00.118Z,92.70
2023-08-04T10:54:27.167Z,92.30
2023-08-04T10:56:54.006Z,92.40
2023-08-04T10:59:20.726Z,92.50
2023-08-04T11:01:48.929Z,92.50
2023-08-04T11:04:16.625Z,92.50
2023-08-04T11:06:44.625Z,92.20
2023-08-04T11:09:11.997Z,92.10
2023-08-04T11:11:38.891Z,92.40
2023-08-04T11:14:08.082Z,92.60
2023-08-04T11:16:37.277Z,92.40
2023-08-04T11:19:04.748Z,91.90
2023-08-04T11:21:31.723Z,92.50
2023-08-04T11:23:58.512Z,92.10
2023-08-04T11:26:25.351Z,92.00
2023-08-04T11:28:52.148Z,92.40
2023-08-04T11:31:22.558Z,92.30
2023-08-04T11:33:51.804Z,92.40
2023-08-04T11:36:19.070Z,92.10
2023-08-04T11:38:45.842Z,92.20
2023-08-04T11:41:13.219Z,92.30
2023-08-04T11:43:40.173Z,92.40
2023-08-04T11:46:10.161Z,92.30
2023-08-04T11:48:38.709Z,92.50
2023-08-04T11:51:09.327Z,92.00
2023-08-04T11:53:37.498Z,92.50
2023-08-04T11:56:04.642Z,92.10
2023-08-04T11:58:31.441Z,91.90
2023-08-04T12:00:58.286Z,92.00
2023-08-04T12:03:25.301Z,92.30
2023-08-04T12:05:52.670Z,92.40
2023-08-04T12:08:19.584Z,92.00
2023-08-04T12:11:00.063Z,91.80
2023-08-04T12:13:33.023Z,91.90
2023-08-04T12:15:59.966Z,91.80
2023-08-04T12:18:27.790Z,91.90
2023-08-04T12:20:55.023Z,91.90
2023-08-04T12:23:21.882Z,92.00
2023-08-04T12:25:48.730Z,92.10
2023-08-04T12:28:16.757Z,92.10
2023-08-04T12:30:43.640Z,92.20
2023-08-04T12:33:10.527Z,92.30
2023-08-04T12:35:37.288Z,92.10
2023-08-04T12:38:05.652Z,91.80
2023-08-04T12:40:33.103Z,91.90
2023-08-04T12:43:00.195Z,91.90
2023-08-04T12:45:27.114Z,92.20
2023-08-04T12:47:54.027Z,92.30
2023-08-04T12:50:20.912Z,92.30
2023-08-04T12:52:47.793Z,91.90
2023-08-04T12:55:14.693Z,92.00
2023-08-04T12:57:41.502Z,91.80
2023-08-04T13:00:08.701Z,91.90
2023-08-04T13:02:35.715Z,92.10
2023-08-04T13:05:02.598Z,92.00
2023-08-04T13:07:29.376Z,92.10
2023-08-04T13:09:56.151Z,92.10
2023-08-04T13:12:25.995Z,91.90
2023-08-04T13:14:52.803Z,92.10
2023-08-04T13:17:19.666Z,91.80
2023-08-04T13:19:47.515Z,92.00
2023-08-04T13:22:14.429Z,92.30
2023-08-04T13:24:41.213Z,91.90
2023-08-04T13:27:09.893Z,92.00
2023-08-04T13:29:38.055Z,92.10
2023-08-04T13:32:05.130Z,92.00
2023-08-04T13:34:31.962Z,92.10
2023-08-04T13:36:58.780Z,92.50
2023-08-04T13:39:25.808Z,92.40
2023-08-04T13:41:52.690Z,92.20
2023-08-04T13:44:19.696Z,91.90
2023-08-04T13:46:46.609Z,92.10
2023-08-04T13:49:13.406Z,92.10
2023-08-04T13:51:40.256Z,92.00
2023-08-04T13:54:06.983Z,92.10
2023-08-04T13:56:34.081Z,92.00
2023-08-04T13:59:01.443Z,92.10
2023-08-04T14:01:29.251Z,92.00
2023-08-04T14:03:56.168Z,92.10
2023-08-04T14:06:23.058Z,92.50
2023-08-04T14:08:49.839Z,92.40
2023-08-04T14:11:17.112Z,92.20
2023-08-04T14:13:43.956Z,92.30
2023-08-04T14:16:11.581Z,92.70
2023-08-04T14:18:38.729Z,92.40
2023-08-04T14:21:05.766Z,92.40
2023-08-04T14:23:32.540Z,92.20
2023-08-04T14:25:59.375Z,92.10
2023-08-04T14:28:26.642Z,92.30
2023-08-04T14:30:53.715Z,92.30
2023-08-04T14:33:20.758Z,92.50
2023-08-04T14:35:47.650Z,92.30
2023-08-04T14:38:16.074Z,92.60
2023-08-04T14:40:43.772Z,92.40
2023-08-04T14:43:10.627Z,92.30
2023-08-04T14:45:38.154Z,92.50
2023-08-04T14:48:05.286Z,92.00
2023-08-04T14:50:32.236Z,92.20
2023-08-04T14:52:59.072Z,92.10
2023-08-04T14:55:26.110Z,92.00
2023-08-04T14:57:53.846Z,92.40
2023-08-04T15:00:20.616Z,92.00
2023-08-04T15:02:47.463Z,92.10
2023-08-04T15:05:14.384Z,92.20
2023-08-04T15:07:42.235Z,92.30
2023-08-04T15:10:09.236Z,92.20
2023-08-04T15:12:36.168Z,92.20
2023-08-04T15:15:03.332Z,92.10
2023-08-04T15:17:31.554Z,92.10
2023-08-04T15:19:58.564Z,92.30
2023-08-04T15:22:25.592Z,92.20
2023-08-04T15:24:52.485Z,92.20
2023-08-04T15:27:19.348Z,92.50
2023-08-04T15:29:46.232Z,92.70
2023-08-04T15:32:13.096Z,92.40
2023-08-04T15:34:40.285Z,92.20
2023-08-04T15:37:07.249Z,92.60
2023-08-04T15:39:34.090Z,92.40
2023-08-04T15:42:00.929Z,92.20
2023-08-04T15:44:27.731Z,92.60
2023-08-04T15:46:54.801Z,91.90
2023-08-04T15:49:21.820Z,91.90
2023-08-04T15:51:48.722Z,92.00
2023-08-04T15:54:15.805Z,92.10
2023-08-04T15:56:42.732Z,92.20
2023-08-04T15:59:09.580Z,92.10
2023-08-04T16:01:36.460Z,92.20
2023-08-04T16:04:03.521Z,92.20
2023-08-04T16:06:30.452Z,92.10
2023-08-04T16:08:57.340Z,92.40
2023-08-04T16:11:24.318Z,92.10
2023-08-04T16:13:51.101Z,92.00
2023-08-04T16:16:17.987Z,92.40
2023-08-04T16:18:44.959Z,92.40
2023-08-04T16:21:11.824Z,92.20
2023-08-04T16:23:38.672Z,92.20
2023-08-04T16:26:05.855Z,92.20
2023-08-04T16:28:33.539Z,92.40
2023-08-04T16:31:00.482Z,92.20
2023-08-04T16:33:27.499Z,92.10
2023-08-04T16:35:54.326Z,92.70
2023-08-04T16:38:21.124Z,92.40
2023-08-04T16:40:48.077Z,92.50
2023-08-04T16:43:14.965Z,92.50
2023-08-04T16:45:42.408Z,92.50
2023-08-04T16:48:09.330Z,92.60
2023-08-04T16:50:36.201Z,92.20
2023-08-04T16:53:04.053Z,92.70
2023-08-04T16:55:34.039Z,92.60
2023-08-04T16:58:01.735Z,92.70
2023-08-04T17:00:28.625Z,92.40
2023-08-04T17:02:55.555Z,92.60
2023-08-04T17:05:22.792Z,92.50
2023-08-04T17:07:50.847Z,92.50
2023-08-04T17:10:17.694Z,92.40
2023-08-04T17:12:44.455Z,92.30
2023-08-04T17:15:16.762Z,92.40
2023-08-04T17:17:49.790Z,92.60
2023-08-04T17:20:16.637Z,92.50
2023-08-04T17:22:43.390Z,92.50
2023-08-04T17:25:10.270Z,92.80
2023-08-04T17:27:37.021Z,92.60
2023-08-04T17:30:04.091Z,92.60
2023-08-04T17:32:32.920Z,92.40
2023-08-04T17:34:59.759Z,92.70
2023-08-04T17:37:26.816Z,92.70
2023-08-04T17:39:53.673Z,92.60
2023-08-04T17:42:20.417Z,92.70
2023-08-04T17:44:47.199Z,92.60
2023-08-04T17:47:14.100Z,92.50
2023-08-04T17:49:40.917Z,92.60
2023-08-04T17:52:08.966Z,92.60
2023-08-04T17:54:36.673Z,92.80
2023-08-04T17:57:03.799Z,92.60
2023-08-04T17:59:30.543Z,92.30
2023-08-04T18:01:57.507Z,92.60
2023-08-04T18:04:24.292Z,92.50
2023-08-04T18:06:51.379Z,92.80
2023-08-04T18:09:18.440Z,92.70
2023-08-04T18:11:45.277Z,92.80
2023-08-04T18:14:12.136Z,92.70
2023-08-04T18:16:39.816Z,92.70
2023-08-04T18:19:06.667Z,92.70
2023-08-04T18:21:33.472Z,92.90
2023-08-04T18:24:00.339Z,93.00
2023-08-04T18:26:27.128Z,92.80
2023-08-04T18:28:53.956Z,92.70
2023-08-04T18:31:20.871Z,92.80
2023-08-04T18:33:47.653Z,92.90
2023-08-04T18:36:14.439Z,92.80
2023-08-04T18:38:41.324Z,92.80
2023-08-04T18:41:08.128Z,92.80
2023-08-04T18:43:35.388Z,92.90
2023-08-04T18:46:02.554Z,92.70
2023-08-04T18:48:29.409Z,93.00
2023-08-04T18:50:56.159Z,92.70
2023-08-04T18:53:23.000Z,92.80
2023-08-04T18:55:49.805Z,92.80
2023-08-04T18:58:16.876Z,93.00
2023-08-04T19:00:43.846Z,93.00
2023-08-04T19:03:10.734Z,92.80
2023-08-04T19:05:37.571Z,92.90
2023-08-04T19:08:04.706Z,93.30
2023-08-04T19:10:31.452Z,93.00
2023-08-04T19:12:58.305Z,92.90
2023-08-04T19:15:25.146Z,92.80
2023-08-04T19:17:51.999Z,92.90
2023-08-04T19:20:18.811Z,92.90
2023-08-04T19:22:45.636Z,92.90
2023-08-04T19:25:12.486Z,93.00
2023-08-04T19:27:39.273Z,93.00
2023-08-04T19:30:06.378Z,92.80
2023-08-04T19:32:33.630Z,92.70
2023-08-04T19:35:01.042Z,92.90
2023-08-04T19:37:28.003Z,93.10
2023-08-04T19:39:54.790Z,92.80
2023-08-04T19:42:21.521Z,92.80
2023-08-04T19:44:48.408Z,92.60
2023-08-04T19:47:15.149Z,92.50
2023-08-04T19:49:41.934Z,92.70
2023-08-04T19:52:08.718Z,92.60
2023-08-04T19:54:35.503Z,92.40
2023-08-04T19:57:02.246Z,92.80
2023-08-04T19:59:29.185Z,92.70
2023-08-04T20:01:55.992Z,92.40
2023-08-04T20:04:22.840Z,92.60
2023-08-04T20:06:50.048Z,92.20
2023-08-04T20:09:16.980Z,92.10
2023-08-04T20:11:43.780Z,92.00
2023-08-04T20:14:10.599Z,91.90
2023-08-04T20:16:38.059Z,91.80
2023-08-04T20:19:05.027Z,91.70
2023-08-04T20:21:31.887Z,91.90
2023-08-04T20:23:58.716Z,91.90
2023-08-04T20:26:25.444Z,91.80
2023-08-04T20:28:52.319Z,91.60
2023-08-04T20:31:19.948Z,91.80
2023-08-04T20:33:46.927Z,91.70
2023-08-04T20:36:14.927Z,91.50
2023-08-04T20:38:42.279Z,91.80
2023-08-04T20:41:12.952Z,92.00
2023-08-04T20:43:41.495Z,91.60
2023-08-04T20:46:08.946Z,91.70
2023-08-04T20:48:38.500Z,92.00
2023-08-04T20:51:05.758Z,91.80
2023-08-04T20:53:33.543Z,91.80
2023-08-04T20:56:01.507Z,91.90
2023-08-04T20:58:29.968Z,92.00
2023-08-04T21:00:56.806Z,91.90
2023-08-04T21:03:24.378Z,91.80
2023-08-04T21:05:51.278Z,91.90
2023-08-04T21:08:18.138Z,91.90
2023-08-04T21:10:47.293Z,91.90
2023-08-04T21:13:16.914Z,92.00
2023-08-04T21:15:43.883Z,92.00
2023-08-04T21:18:15.283Z,91.90
2023-08-04T21:20:48.377Z,92.00
2023-08-04T21:23:20.763Z,91.90
2023-08-04T21:25:48.235Z,91.80
2023-08-04T21:28:15.114Z,91.90
2023-08-04T21:30:44.235Z,92.10
2023-08-04T21:33:11.629Z,91.90
2023-08-04T21:35:39.649Z,92.10
2023-08-04T21:38:06.666Z,92.00
2023-08-04T21:40:33.589Z,92.00
2023-08-04T21:43:00.475Z,92.00
2023-08-04T21:45:28.338Z,92.20
2023-08-04T21:47:55.683Z,92.20
2023-08-04T21:50:22.808Z,92.40
2023-08-04T21:52:50.049Z,92.30
2023-08-04T21:55:17.113Z,92.30
2023-08-04T21:57:45.480Z,92.30
2023-08-04T22:00:14.262Z,92.30
2023-08-04T22:02:42.178Z,92.40
2023-08-04T22:05:09.297Z,92.50
2023-08-04T22:07:36.103Z,92.60
2023-08-04T22:10:03.238Z,92.60
2023-08-04T22:12:30.043Z,92.70
2023-08-04T22:14:58.293Z,92.50
2023-08-04T22:17:25.501Z,92.60
2023-08-04T22:19:52.522Z,92.50
2023-08-04T22:22:19.371Z,92.50
2023-08-04T22:24:46.417Z,92.60
2023-08-04T22:27:15.320Z,92.70
2023-08-04T22:29:42.429Z,93.00
2023-08-04T22:32:09.434Z,92.80
2023-08-04T22:34:36.212Z,92.70
2023-08-04T22:37:03.085Z,92.80
2023-08-04T22:39:30.037Z,92.80
2023-08-04T22:41:57.368Z,92.70
2023-08-04T22:44:24.140Z,92.70
2023-08-04T22:46:51.253Z,92.80
2023-08-04T22:49:18.327Z,92.80
2023-08-04T22:51:45.141Z,92.70
2023-08-04T22:54:22.876Z,92.90
2023-08-04T22:56:58.779Z,92.80
2023-08-04T22:59:25.796Z,92.90
2023-08-04T23:01:52.644Z,93.00
2023-08-04T23:04:19.571Z,92.80
2023-08-04T23:06:46.480Z,93.00
2023-08-04T23:09:13.347Z,93.10
2023-08-04T23:11:40.272Z,93.10
2023-08-04T23:14:07.129Z,92.90
2023-08-04T23:16:33.994Z,93.00
2023-08-04T23:19:00.993Z,93.00
2023-08-04T23:21:27.901Z,92.80
2023-08-04T23:23:54.777Z,93.10
2023-08-04T23:26:21.571Z,92.80
2023-08-04T23:28:48.448Z,92.90
2023-08-04T23:31:15.316Z,93.00
2023-08-04T23:33:42.212Z,92.90
2023-08-04T23:36:09.567Z,92.90
2023-08-04T23:38:36.377Z,93.10
2023-08-04T23:41:03.337Z,93.00
2023-08-04T23:43:30.271Z,93.00
2023-08-04T23:45:57.172Z,93.20
2023-08-04T23:48:23.971Z,93.00
2023-08-04T23:50:50.888Z,93.00
2023-08-04T23:53:19.636Z,93.10
2023-08-04T23:55:46.493Z,93.00
2023-08-04T23:58:13.541Z,93.20
